Time;durP1;ratioP1;P1;durP2;ratioP2;P2;SDS_P1;SDS_P2;PMS_P1;PMS_P2;Temp;Humidity;BMP_temperature;BMP_pressure;BME280_temperature;BME280_humidity;BME280_pressure;Samples;Min_cycle;Max_cycle;Signal;HPM_P1;HPM_P2
2023/06/18 00:00:11;;;;;;;15.37;6.60;;;;;;;20.71;69.91;99845.02;123625;1102;104368;-80
2023/06/18 00:03:02;;;;;;;15.10;7.17;;;;;;;20.66;69.50;99836.20;123673;1102;104262;-78
2023/06/18 00:05:34;;;;;;;18.00;7.10;;;;;;;20.63;70.33;99830.88;123302;1102;104286;-77
2023/06/18 00:08:06;;;;;;;15.75;6.95;;;;;;;20.59;69.60;99839.85;123392;1102;104242;-78
2023/06/18 00:10:37;;;;;;;12.23;6.80;;;;;;;20.57;69.91;99839.88;123307;1102;104347;-77
2023/06/18 00:13:08;;;;;;;13.53;6.70;;;;;;;20.53;70.08;99838.16;123297;1099;104268;-78
2023/06/18 00:15:39;;;;;;;17.20;7.10;;;;;;;20.51;70.05;99837.30;123380;1100;104409;-79
2023/06/18 00:18:11;;;;;;;13.13;6.93;;;;;;;20.49;70.30;99833.80;123510;1099;104300;-78
2023/06/18 00:20:42;;;;;;;15.00;6.90;;;;;;;20.47;70.16;99839.15;123278;1102;104281;-77
2023/06/18 00:23:13;;;;;;;13.67;6.67;;;;;;;20.43;70.70;99834.76;123341;1102;104278;-77
2023/06/18 00:25:45;;;;;;;16.03;6.70;;;;;;;20.39;70.60;99838.36;123316;1102;104351;-77
2023/06/18 00:28:16;;;;;;;13.60;6.80;;;;;;;20.34;69.81;99836.69;123284;1102;104380;-75
2023/06/18 00:30:47;;;;;;;14.50;6.87;;;;;;;20.29;70.61;99837.62;123216;1102;104310;-77
2023/06/18 00:33:19;;;;;;;14.87;7.50;;;;;;;20.26;70.42;99832.34;123330;1102;104306;-76
2023/06/18 00:35:56;;;;;;;12.93;7.07;;;;;;;20.21;71.01;99835.97;123215;1102;104393;-77
2023/06/18 00:38:28;;;;;;;16.65;7.25;;;;;;;20.14;70.35;99826.33;123198;1102;104304;-76
2023/06/18 00:41:00;;;;;;;15.65;6.75;;;;;;;20.08;70.96;99829.94;123310;1102;110590;-77
2023/06/18 00:43:31;;;;;;;11.27;6.27;;;;;;;20.03;71.28;99830.00;123352;1100;104310;-78
2023/06/18 00:46:05;;;;;;;16.47;7.00;;;;;;;19.99;72.02;99830.06;123314;1102;104310;-77
2023/06/18 00:48:37;;;;;;;13.60;7.33;;;;;;;19.97;72.75;99829.22;123331;1102;104450;-77
2023/06/18 00:51:10;;;;;;;14.17;6.73;;;;;;;19.90;72.39;99823.97;123397;1102;104367;-76
2023/06/18 00:53:41;;;;;;;14.23;6.73;;;;;;;19.86;71.80;99830.23;123490;1102;104255;-78
2023/06/18 00:56:14;;;;;;;16.50;7.47;;;;;;;19.82;72.07;99831.19;123340;1102;104280;-77
2023/06/18 00:58:47;;;;;;;15.80;6.75;;;;;;;19.79;71.74;99832.98;123554;1101;104245;-77
2023/06/18 01:01:20;;;;;;;16.75;6.95;;;;;;;19.75;72.59;99832.13;123513;1102;107923;-77
2023/06/18 01:03:52;;;;;;;14.27;6.80;;;;;;;19.72;72.23;99833.03;123341;1100;104441;-77
2023/06/18 01:06:24;;;;;;;13.53;6.67;;;;;;;19.69;72.16;99841.05;123357;1101;104348;-78
2023/06/18 01:08:56;;;;;;;14.10;6.80;;;;;;;19.65;73.48;99836.69;123392;1099;104280;-77
2023/06/18 01:11:29;;;;;;;14.63;6.83;;;;;;;19.61;72.83;99842.94;123412;1102;104312;-77
2023/06/18 01:14:01;;;;;;;14.65;6.50;;;;;;;19.58;73.20;99833.20;123476;1102;104245;-78
2023/06/18 01:16:33;;;;;;;14.23;6.80;;;;;;;19.56;73.96;99835.00;123320;1102;104319;-78
2023/06/18 01:19:05;;;;;;;13.00;6.57;;;;;;;19.52;73.18;99837.72;123243;1099;104261;-78
2023/06/18 01:21:38;;;;;;;12.97;6.70;;;;;;;19.48;73.88;99833.35;123528;1102;104319;-77
2023/06/18 01:24:14;;;;;;;14.37;7.00;;;;;;;19.43;73.53;99849.36;123336;1102;104280;-79
2023/06/18 01:26:46;;;;;;;12.77;6.73;;;;;;;19.39;73.81;99847.63;123275;1102;104332;-78
2023/06/18 01:29:17;;;;;;;15.60;6.87;;;;;;;19.36;74.16;99847.66;123333;1100;104319;-78
2023/06/18 01:31:48;;;;;;;13.53;6.83;;;;;;;19.33;74.19;99851.22;123399;1100;104268;-76
2023/06/18 01:34:20;;;;;;;11.93;6.80;;;;;;;19.32;74.87;99852.14;123367;1098;104241;-78
2023/06/18 01:37:03;;;;;;;13.17;6.90;;;;;;;19.27;74.40;99853.94;123479;1099;104337;-78
2023/06/18 01:39:45;;;;;;;13.20;7.07;;;;;;;19.22;74.74;99847.80;123429;1100;104280;-78
2023/06/18 01:42:21;;;;;;;14.50;7.10;;;;;;;19.18;74.97;99854.03;123577;1102;104275;-78
2023/06/18 01:44:58;;;;;;;17.43;7.40;;;;;;;19.15;75.43;99862.04;123450;1100;104272;-77
2023/06/18 01:47:30;;;;;;;15.17;7.20;;;;;;;19.10;75.25;99858.55;123407;1100;104201;-78
2023/06/18 01:50:04;;;;;;;13.73;7.07;;;;;;;19.10;75.12;99861.20;123489;1102;104414;-78
2023/06/18 01:52:41;;;;;;;16.73;7.67;;;;;;;19.06;75.55;99862.13;123228;1102;108167;-76
2023/06/18 01:55:14;;;;;;;17.40;8.20;;;;;;;19.03;75.91;99865.71;123430;1101;104293;-76
2023/06/18 01:57:45;;;;;;;14.37;7.57;;;;;;;19.00;75.83;99874.59;123433;1102;104274;-78
2023/06/18 02:00:18;;;;;;;14.93;7.80;;;;;;;18.95;76.15;99868.44;123318;1102;104357;-77
2023/06/18 02:02:50;;;;;;;16.73;7.80;;;;;;;18.89;76.05;99868.48;123208;1101;118628;-76
2023/06/18 02:05:22;;;;;;;16.55;7.65;;;;;;;18.88;76.17;99872.03;123403;1100;104303;-77
2023/06/18 02:07:53;;;;;;;19.07;8.23;;;;;;;18.85;76.29;99870.30;123254;1102;104280;-77
2023/06/18 02:10:25;;;;;;;15.30;8.40;;;;;;;18.83;76.40;99874.69;123231;1102;104232;-77
2023/06/18 02:12:56;;;;;;;15.10;7.60;;;;;;;18.81;77.25;99875.62;123313;1102;104254;-77
2023/06/18 02:15:27;;;;;;;16.70;8.20;;;;;;;18.77;76.36;99882.72;123243;1102;104277;-76
2023/06/18 02:17:58;;;;;;;16.75;8.05;;;;;;;18.77;76.49;99884.50;123294;1102;104425;-77
2023/06/18 02:20:30;;;;;;;17.77;8.20;;;;;;;18.80;77.13;99880.03;123267;1101;104395;-77
2023/06/18 02:23:01;;;;;;;16.33;7.97;;;;;;;18.77;77.75;99889.81;123420;1099;104268;-77
2023/06/18 02:25:33;;;;;;;18.60;8.20;;;;;;;18.73;77.65;99890.72;123234;1102;104261;-77
2023/06/18 02:28:06;;;;;;;14.00;7.20;;;;;;;18.70;78.26;99888.98;123217;1099;104329;-78
2023/06/18 02:30:38;;;;;;;16.77;7.67;;;;;;;18.66;77.93;99893.42;123316;1102;104342;-78
2023/06/18 02:33:10;;;;;;;16.50;8.23;;;;;;;18.64;77.69;99889.91;123323;1099;104220;-77
2023/06/18 02:35:44;;;;;;;15.53;7.77;;;;;;;18.66;78.83;99888.11;123349;1102;104350;-77
2023/06/18 02:38:15;;;;;;;16.20;7.73;;;;;;;18.68;78.19;99894.31;123308;1102;104309;-77
2023/06/18 02:40:46;;;;;;;19.45;7.65;;;;;;;18.69;78.14;99890.74;123391;1102;104297;-77
2023/06/18 02:43:18;;;;;;;14.93;7.63;;;;;;;18.72;78.40;99899.61;123429;1102;104312;-77
2023/06/18 02:45:50;;;;;;;15.90;7.87;;;;;;;18.74;78.12;99892.50;123303;1099;104248;-80
2023/06/18 02:48:21;;;;;;;15.33;7.67;;;;;;;18.76;78.38;99896.02;123329;1099;104705;-76
2023/06/18 02:50:52;;;;;;;16.17;7.37;;;;;;;18.80;78.86;99903.08;123331;1102;104252;-76
2023/06/18 02:53:50;;;;;;;14.47;7.63;;;;;;;18.82;78.53;99898.62;123355;1102;104405;-77
2023/06/18 02:56:26;;;;;;;14.30;7.50;;;;;;;18.84;78.51;99903.08;123586;1102;104896;-78
2023/06/18 02:58:57;;;;;;;15.53;7.78;;;;;;;18.89;79.07;99907.49;123449;1102;104377;-76
2023/06/18 03:01:31;;;;;;;17.50;7.60;;;;;;;18.95;79.27;99905.66;123486;1102;104380;-78
2023/06/18 03:04:05;;;;;;;15.20;7.63;;;;;;;18.97;78.83;99908.30;123821;1101;104380;-77
2023/06/18 03:06:37;;;;;;;16.87;7.60;;;;;;;19.03;78.82;99909.13;123473;1102;104316;-77
2023/06/18 03:09:09;;;;;;;16.10;8.00;;;;;;;19.07;79.20;99914.42;123442;1102;104378;-76
2023/06/18 03:11:40;;;;;;;16.33;7.23;;;;;;;19.11;79.74;99908.19;123227;1102;104687;-76
2023/06/18 03:14:12;;;;;;;19.67;7.90;;;;;;;19.15;79.45;99910.81;123355;1102;104252;-78
2023/06/18 03:16:44;;;;;;;15.27;7.33;;;;;;;19.20;79.13;99905.45;123624;1102;104261;-77
2023/06/18 03:19:16;;;;;;;15.75;7.35;;;;;;;19.28;79.57;99916.89;123341;1102;104319;-77
2023/06/18 03:21:48;;;;;;;14.70;6.90;;;;;;;19.36;79.08;99917.69;123346;1102;104350;-77
2023/06/18 03:24:19;;;;;;;12.97;6.83;;;;;;;19.44;79.48;99922.94;123546;1100;104286;-77
2023/06/18 03:26:51;;;;;;;16.00;7.17;;;;;;;19.52;79.21;99922.86;123593;1102;104280;-76
2023/06/18 03:29:24;;;;;;;19.23;7.20;;;;;;;19.58;79.08;99922.80;123563;1102;104240;-76
2023/06/18 03:31:57;;;;;;;15.87;7.40;;;;;;;19.67;78.74;99921.84;123402;1100;105290;-76
2023/06/18 03:34:28;;;;;;;13.60;7.20;;;;;;;19.73;78.63;99925.30;123278;1102;104504;-78
2023/06/18 03:37:00;;;;;;;12.20;6.93;;;;;;;19.78;78.85;99919.96;123273;1099;104415;-76
2023/06/18 03:39:32;;;;;;;14.73;7.50;;;;;;;19.82;78.80;99928.78;123193;1102;104332;-76
2023/06/18 03:42:03;;;;;;;16.37;7.30;;;;;;;19.81;78.62;99921.72;123237;1099;104283;-76
2023/06/18 03:44:35;;;;;;;13.70;7.23;;;;;;;19.80;78.57;99920.81;123172;1102;104363;-77
2023/06/18 03:47:07;;;;;;;14.30;6.97;;;;;;;19.80;78.88;99927.93;123441;1102;104364;-78
2023/06/18 03:49:39;;;;;;;14.40;7.53;;;;;;;19.81;79.00;99933.23;123421;1102;104448;-78
2023/06/18 03:52:12;;;;;;;13.63;7.03;;;;;;;19.81;78.29;99930.58;123520;1102;104344;-78
2023/06/18 03:54:44;;;;;;;15.65;7.37;;;;;;;19.83;78.86;99927.89;123421;1099;104727;-78
2023/06/18 03:57:17;;;;;;;14.50;7.80;;;;;;;19.87;78.21;99934.95;123504;1099;104284;-77
2023/06/18 03:59:51;;;;;;;17.57;7.70;;;;;;;19.87;79.09;99937.63;123543;1102;104341;-78
2023/06/18 04:02:23;;;;;;;16.63;8.03;;;;;;;19.87;78.96;99930.50;123567;1102;104351;-78
2023/06/18 04:04:54;;;;;;;14.47;7.77;;;;;;;19.87;78.59;99946.48;123507;1100;104360;-78
2023/06/18 04:07:26;;;;;;;16.83;7.53;;;;;;;19.88;78.15;99942.02;123254;1102;104318;-77
2023/06/18 04:09:57;;;;;;;12.53;7.20;;;;;;;19.90;78.11;99945.58;123278;1102;104287;-75
2023/06/18 04:12:29;;;;;;;15.60;7.50;;;;;;;19.94;79.10;99939.30;123478;1100;104469;-77
2023/06/18 04:15:01;;;;;;;19.83;7.93;;;;;;;19.94;77.97;99941.95;123504;1102;104370;-78
2023/06/18 04:17:41;;;;;;;14.57;7.37;;;;;;;19.97;77.89;99943.72;123497;1102;104258;-77
2023/06/18 04:20:14;;;;;;;15.43;7.90;;;;;;;20.00;79.08;99949.88;123508;1102;104431;-78
2023/06/18 04:22:44;;;;;;;;;;;;;;;20.08;78.34;99955.11;123628;1102;104249;-78
2023/06/18 04:25:16;;;;;;;16.23;7.20;;;;;;;20.14;78.35;99948.84;123656;1102;104383;-77
2023/06/18 04:27:47;;;;;;;13.20;7.40;;;;;;;20.19;77.76;99955.85;123353;1101;104258;-77
2023/06/18 04:30:19;;;;;;;15.47;7.43;;;;;;;20.24;78.73;99966.45;123281;1102;104399;-78
2023/06/18 04:32:51;;;;;;;16.17;7.80;;;;;;;20.29;78.77;99953.98;123549;1100;104248;-78
2023/06/18 04:35:23;;;;;;;14.77;7.93;;;;;;;20.35;78.62;99963.66;123449;1101;104260;-78
2023/06/18 04:37:55;;;;;;;14.03;7.47;;;;;;;20.36;78.52;99958.30;123542;1102;104702;-79
2023/06/18 04:40:26;;;;;;;15.73;8.27;;;;;;;20.34;77.52;99957.45;123748;1102;104188;-78
2023/06/18 04:42:58;;;;;;;18.63;7.67;;;;;;;20.34;77.83;99956.58;123382;1102;104358;-78
2023/06/18 04:45:34;;;;;;;15.00;8.37;;;;;;;20.37;78.37;99959.20;123573;1102;104246;-77
2023/06/18 04:48:07;;;;;;;14.30;7.60;;;;;;;20.40;78.33;99962.70;123355;1100;104293;-76
2023/06/18 04:50:39;;;;;;;15.03;8.30;;;;;;;20.49;78.27;99964.38;123305;1102;104460;-76
2023/06/18 04:53:12;;;;;;;15.17;8.03;;;;;;;20.58;78.04;99969.55;123191;1102;104210;-77
2023/06/18 04:55:43;;;;;;;13.57;7.00;;;;;;;20.66;77.40;99969.48;123216;1102;104316;-77
2023/06/18 04:58:15;;;;;;;14.70;7.20;;;;;;;20.75;77.27;99966.68;123318;1102;104297;-77
2023/06/18 05:00:47;;;;;;;14.33;7.83;;;;;;;20.85;77.74;99970.11;123281;1102;104380;-76
2023/06/18 05:03:19;;;;;;;15.10;7.23;;;;;;;20.95;78.07;99976.18;123345;1102;104361;-76
2023/06/18 05:05:50;;;;;;;14.40;7.60;;;;;;;21.01;76.94;99978.75;123380;1101;104686;-77
2023/06/18 05:08:24;;;;;;;16.77;8.38;;;;;;;21.10;76.74;99983.05;123524;1102;104306;-77
2023/06/18 05:10:56;;;;;;;15.20;7.27;;;;;;;21.20;77.08;99987.34;123862;1102;104184;-78
2023/06/18 05:13:27;;;;;;;14.97;7.53;;;;;;;21.30;76.97;99986.30;123438;1102;104394;-78
2023/06/18 05:15:59;;;;;;;15.60;7.93;;;;;;;21.39;76.44;99982.57;123619;1102;104339;-78
2023/06/18 05:18:30;;;;;;;14.40;7.67;;;;;;;21.48;77.01;99976.20;123453;1102;104296;-76
2023/06/18 05:21:01;;;;;;;17.53;7.80;;;;;;;21.59;76.83;99992.07;123369;1102;104341;-77
2023/06/18 05:23:33;;;;;;;14.95;6.95;;;;;;;21.66;75.87;99994.61;123335;1102;104265;-76
2023/06/18 05:26:05;;;;;;;14.50;7.07;;;;;;;21.75;76.06;99990.87;123463;1099;104264;-76
2023/06/18 05:28:37;;;;;;;17.27;7.27;;;;;;;21.83;75.89;99996.97;123355;1102;104277;-77
2023/06/18 05:31:08;;;;;;;14.30;7.30;;;;;;;21.89;75.83;99996.86;123416;1102;104284;-78
2023/06/18 05:33:39;;;;;;;13.30;7.10;;;;;;;22.00;75.70;100002.00;123241;1102;104277;-77
2023/06/18 05:36:11;;;;;;;17.43;8.00;;;;;;;22.10;74.92;100007.16;123312;1102;104421;-78
2023/06/18 05:38:42;;;;;;;14.50;7.30;;;;;;;22.15;74.25;100011.48;123341;1102;104190;-77
2023/06/18 05:41:13;;;;;;;14.70;7.60;;;;;;;22.20;74.60;100006.05;123627;1102;104281;-79
2023/06/18 05:43:45;;;;;;;14.70;7.17;;;;;;;22.26;74.05;100013.95;123763;1102;104313;-80
2023/06/18 05:46:16;;;;;;;14.33;7.30;;;;;;;22.34;74.12;100008.48;123772;1102;105503;-80
2023/06/18 05:48:47;;;;;;;17.93;7.50;;;;;;;22.41;73.77;100018.14;123804;1102;104319;-81
2023/06/18 05:51:22;;;;;;;15.40;7.43;;;;;;;22.47;73.54;100007.33;123855;1100;104268;-81
2023/06/18 05:53:53;;;;;;;13.53;7.30;;;;;;;22.54;73.81;100008.94;123851;1102;104502;-80
2023/06/18 05:56:25;;;;;;;16.73;7.73;;;;;;;22.64;73.70;100016.76;123692;1102;104290;-80
2023/06/18 05:58:56;;;;;;;12.73;6.60;;;;;;;22.76;73.75;100016.49;123726;1099;104245;-79
2023/06/18 06:01:27;;;;;;;14.57;7.53;;;;;;;22.87;73.50;100013.58;123791;1102;104252;-80
2023/06/18 06:03:59;;;;;;;13.40;7.40;;;;;;;22.96;72.84;100003.53;123760;1102;104334;-81
2023/06/18 06:06:31;;;;;;;10.73;6.80;;;;;;;23.04;72.80;100011.38;123912;1102;104402;-81
2023/06/18 06:09:02;;;;;;;18.17;8.10;;;;;;;23.13;72.54;100010.33;123759;1102;104331;-81
2023/06/18 06:11:36;;;;;;;14.53;7.17;;;;;;;23.20;72.20;100022.63;123692;1102;104718;-81
2023/06/18 06:14:09;;;;;;;12.03;6.53;;;;;;;23.29;71.57;100022.41;123864;1102;104341;-81
2023/06/18 06:16:41;;;;;;;16.30;7.25;;;;;;;23.37;71.73;100022.22;123670;1102;104227;-80
2023/06/18 06:19:12;;;;;;;13.83;7.23;;;;;;;23.48;71.31;100024.64;123674;1102;104422;-80
2023/06/18 06:21:43;;;;;;;13.83;7.50;;;;;;;23.54;71.27;100019.13;123776;1102;104217;-80
2023/06/18 06:24:15;;;;;;;14.40;7.20;;;;;;;23.63;70.99;100021.57;123720;1102;104300;-80
2023/06/18 06:26:46;;;;;;;15.60;8.03;;;;;;;23.72;70.18;100022.24;123671;1100;104213;-79
2023/06/18 06:29:18;;;;;;;14.50;6.73;;;;;;;23.81;70.57;100019.33;123700;1102;104364;-79
2023/06/18 06:31:49;;;;;;;14.83;7.70;;;;;;;23.94;70.12;100017.25;123775;1102;104271;-80
2023/06/18 06:34:23;;;;;;;16.50;7.87;;;;;;;24.08;69.88;100016.87;123644;1100;104351;-79
2023/06/18 06:36:55;;;;;;;14.47;7.05;;;;;;;24.19;68.93;100020.13;123760;1102;105651;-78
2023/06/18 06:39:26;;;;;;;12.40;7.20;;;;;;;24.33;69.24;100019.73;123749;1101;104293;-78
2023/06/18 06:41:57;;;;;;;14.55;7.25;;;;;;;24.44;68.11;100020.30;123561;1102;104280;-79
2023/06/18 06:44:34;;;;;;;15.40;6.93;;;;;;;24.56;67.84;100016.39;123762;1102;104408;-79
2023/06/18 06:47:24;;;;;;;13.43;7.43;;;;;;;24.68;67.41;100024.11;123734;1099;104261;-80
2023/06/18 06:50:14;;;;;;;12.97;6.87;;;;;;;24.81;67.57;100021.91;123707;1099;104245;-78
2023/06/18 06:53:05;;;;;;;13.43;7.17;;;;;;;24.98;66.99;100020.50;123637;1099;104271;-78
2023/06/18 06:55:37;;;;;;;16.37;7.70;;;;;;;25.13;66.78;100014.64;123621;1102;104319;-79
2023/06/18 06:58:08;;;;;;;14.97;7.27;;;;;;;25.25;66.14;100016.93;123547;1102;104358;-78
2023/06/18 07:00:40;;;;;;;14.10;7.43;;;;;;;25.41;66.02;100014.64;123475;1099;104349;-78
2023/06/18 07:03:13;;;;;;;13.08;7.10;;;;;;;25.59;65.92;100020.35;123605;1102;104338;-79
2023/06/18 07:05:45;;;;;;;15.50;7.50;;;;;;;25.75;65.84;100009.95;123501;1102;104226;-78
2023/06/18 07:08:16;;;;;;;14.10;6.83;;;;;;;25.94;64.20;100020.92;123463;1102;104409;-77
2023/06/18 07:10:48;;;;;;;13.00;6.73;;;;;;;26.14;63.70;100014.86;123413;1102;104405;-76
2023/06/18 07:13:19;;;;;;;15.73;6.70;;;;;;;26.35;62.54;100021.24;123402;1102;104268;-78
2023/06/18 07:15:50;;;;;;;15.90;6.80;;;;;;;26.54;61.29;100016.94;123458;1102;104283;-79
2023/06/18 07:18:22;;;;;;;18.03;7.00;;;;;;;26.73;61.68;100011.75;123479;1101;104248;-78
2023/06/18 07:20:53;;;;;;;12.43;6.67;;;;;;;26.89;61.37;100014.70;123277;1101;104245;-77
2023/06/18 07:23:24;;;;;;;12.00;6.50;;;;;;;26.99;61.09;100006.27;123293;1102;104270;-77
2023/06/18 07:25:55;;;;;;;16.57;7.23;;;;;;;27.28;59.44;100014.98;123325;1099;104242;-77
2023/06/18 07:28:26;;;;;;;20.17;6.90;;;;;;;27.51;59.01;100012.23;123214;1101;104239;-76
2023/06/18 07:30:58;;;;;;;11.43;6.43;;;;;;;27.72;57.54;100009.56;123574;1100;104350;-75
2023/06/18 07:33:29;;;;;;;13.90;6.83;;;;;;;27.90;57.23;100007.90;123651;1102;104299;-77
2023/06/18 07:36:00;;;;;;;12.80;6.50;;;;;;;28.01;56.76;100013.72;123745;1102;104472;-78
2023/06/18 07:38:31;;;;;;;14.87;6.87;;;;;;;28.26;56.19;100012.62;123616;1102;104258;-77
2023/06/18 07:41:03;;;;;;;12.53;6.73;;;;;;;28.43;55.01;100014.55;123686;1102;104261;-76
2023/06/18 07:43:34;;;;;;;13.27;6.33;;;;;;;28.65;54.64;100009.91;123287;1102;104329;-77
2023/06/18 07:46:05;;;;;;;14.27;6.53;;;;;;;28.83;53.45;100004.61;123260;1102;104285;-78
2023/06/18 07:48:37;;;;;;;11.67;6.20;;;;;;;28.97;53.04;100010.21;123263;1102;104274;-78
2023/06/18 07:51:09;;;;;;;11.50;5.93;;;;;;;29.06;53.73;100008.87;123340;1102;104284;-78
2023/06/18 07:53:40;;;;;;;12.80;6.50;;;;;;;29.21;51.73;100009.98;123262;1102;104326;-76
2023/06/18 07:56:11;;;;;;;11.70;6.57;;;;;;;29.43;52.34;100008.91;123219;1100;104349;-76
2023/06/18 07:58:44;;;;;;;13.63;6.20;;;;;;;29.67;51.37;100013.08;123193;1102;104332;-77
2023/06/18 08:01:15;;;;;;;10.57;6.23;;;;;;;29.80;50.47;100009.77;123281;1102;104310;-78
2023/06/18 08:03:46;;;;;;;13.47;6.50;;;;;;;29.79;50.36;100011.55;123227;1102;104226;-77
2023/06/18 08:06:17;;;;;;;12.00;6.07;;;;;;;29.90;49.30;100011.91;123319;1102;104290;-78
2023/06/18 08:08:49;;;;;;;12.75;6.80;;;;;;;29.97;49.11;100015.16;123301;1099;104223;-77
2023/06/18 08:11:20;;;;;;;11.90;6.10;;;;;;;30.06;49.00;100017.38;123334;1102;104721;-77
2023/06/18 08:13:51;;;;;;;12.20;6.10;;;;;;;30.22;48.39;100017.42;123308;1102;104434;-77
2023/06/18 08:16:25;;;;;;;13.33;5.87;;;;;;;30.34;46.40;100021.31;123413;1102;104268;-78
2023/06/18 08:18:56;;;;;;;10.93;6.00;;;;;;;30.49;45.88;100019.62;123486;1099;104350;-78
2023/06/18 08:21:27;;;;;;;12.97;6.47;;;;;;;30.61;45.76;100020.79;123425;1098;104289;-75
2023/06/18 08:23:58;;;;;;;11.07;6.00;;;;;;;30.65;44.03;100016.93;123391;1099;104310;-78
2023/06/18 08:26:32;;;;;;;13.63;6.20;;;;;;;30.57;44.33;100014.64;123276;1102;104409;-77
2023/06/18 08:29:03;;;;;;;10.97;5.67;;;;;;;30.59;44.20;100017.27;123366;1102;104207;-77
2023/06/18 08:31:35;;;;;;;11.63;5.80;;;;;;;30.67;44.64;100008.72;123401;1102;104357;-80
2023/06/18 08:34:06;;;;;;;11.10;5.67;;;;;;;30.85;43.52;100013.11;123492;1102;104254;-79
2023/06/18 08:36:37;;;;;;;11.77;6.20;;;;;;;30.83;42.88;100007.78;123534;1102;104332;-78
2023/06/18 08:39:08;;;;;;;12.53;5.40;;;;;;;30.85;42.62;100009.53;123281;1102;104323;-78
2023/06/18 08:41:42;;;;;;;9.25;5.55;;;;;;;31.01;42.52;100010.45;123534;1102;104354;-78
2023/06/18 08:44:13;;;;;;;10.07;5.67;;;;;;;31.21;42.02;100006.56;123296;1102;104347;-77
2023/06/18 08:46:47;;;;;;;10.70;5.50;;;;;;;31.36;41.65;100007.52;123295;1102;104319;-76
2023/06/18 08:49:21;;;;;;;10.20;5.93;;;;;;;31.54;40.99;100013.73;123228;1102;104275;-75
2023/06/18 08:51:55;;;;;;;9.47;5.80;;;;;;;31.71;40.84;100012.70;123194;1102;104242;-77
2023/06/18 08:54:32;;;;;;;10.13;6.47;;;;;;;31.82;40.06;100015.66;123327;1102;104352;-77
2023/06/18 08:57:14;;;;;;;9.47;5.83;;;;;;;31.84;40.39;100015.56;123487;1102;104261;-78
2023/06/18 08:59:46;;;;;;;12.63;5.90;;;;;;;31.87;39.36;100009.95;123194;1102;104351;-79
2023/06/18 09:02:20;;;;;;;12.97;5.80;;;;;;;31.89;38.81;100013.44;123246;1099;104344;-78
2023/06/18 09:04:52;;;;;;;10.67;5.87;;;;;;;32.06;39.29;100012.41;123293;1102;104412;-78
2023/06/18 09:07:25;;;;;;;10.33;5.60;;;;;;;32.27;39.03;100012.92;123216;1099;104350;-77
2023/06/18 09:09:57;;;;;;;7.67;5.30;;;;;;;32.52;38.67;100022.24;123456;1102;104659;-77
2023/06/18 09:12:29;;;;;;;9.33;5.53;;;;;;;32.30;37.25;100007.30;123365;1102;104217;-77
2023/06/18 09:15:00;;;;;;;13.28;5.67;;;;;;;32.33;37.50;100008.97;123218;1102;104364;-78
2023/06/18 09:17:32;;;;;;;11.77;5.33;;;;;;;32.47;36.85;100014.39;123214;1100;104412;-76
2023/06/18 09:20:05;;;;;;;11.17;5.53;;;;;;;32.52;36.81;99997.80;123133;1102;104248;-77
2023/06/18 09:22:46;;;;;;;11.75;6.08;;;;;;;32.54;36.44;99999.45;123233;1101;104386;-77
2023/06/18 09:25:22;;;;;;;11.53;5.50;;;;;;;32.59;36.46;100000.03;123266;1100;104237;-78
2023/06/18 09:27:56;;;;;;;7.93;5.50;;;;;;;32.48;36.29;99998.98;123342;1102;104255;-78
2023/06/18 09:30:28;;;;;;;8.10;5.27;;;;;;;32.40;35.48;100000.34;123230;1100;104421;-78
2023/06/18 09:33:00;;;;;;;12.37;5.77;;;;;;;32.51;34.96;99987.94;123390;1102;104353;-78
2023/06/18 09:35:31;;;;;;;;;;;;;;;32.56;35.23;99986.65;123534;1102;104245;-78
2023/06/18 09:38:10;;;;;;;12.27;5.73;;;;;;;32.39;35.56;99985.00;123314;1102;104283;-78
2023/06/18 09:40:43;;;;;;;9.87;5.90;;;;;;;32.19;35.10;99986.27;123398;1102;104269;-77
2023/06/18 09:43:14;;;;;;;9.10;6.00;;;;;;;32.04;35.09;99979.08;123422;1099;104695;-78
2023/06/18 09:45:46;;;;;;;10.30;5.60;;;;;;;31.89;35.12;99979.03;123551;1102;104271;-78
2023/06/18 09:48:17;;;;;;;10.03;5.80;;;;;;;31.78;34.92;99984.25;123547;1102;104264;-75
2023/06/18 09:50:49;;;;;;;13.40;5.60;;;;;;;31.78;34.46;99977.97;123252;1101;104360;-76
2023/06/18 09:53:21;;;;;;;12.50;5.67;;;;;;;31.90;34.66;99983.50;123297;1102;104172;-77
2023/06/18 09:55:52;;;;;;;11.33;5.83;;;;;;;31.94;34.25;99984.17;123340;1102;104470;-76
2023/06/18 09:58:41;;;;;;;9.20;5.43;;;;;;;31.88;33.76;99985.45;123262;1102;104398;-76
2023/06/18 10:01:12;;;;;;;12.40;6.30;;;;;;;31.64;33.94;99981.52;123503;1102;104329;-79
2023/06/18 10:03:44;;;;;;;8.60;5.90;;;;;;;31.44;34.15;99983.53;123668;1100;104243;-77
2023/06/18 10:06:20;;;;;;;12.17;5.80;;;;;;;31.27;34.40;99987.23;123848;1099;104245;-78
2023/06/18 10:08:58;;;;;;;9.30;5.60;;;;;;;31.16;34.58;99978.87;123373;1099;104351;-77
2023/06/18 10:11:31;;;;;;;12.47;5.73;;;;;;;31.06;34.61;99983.97;123594;1102;104296;-79
2023/06/18 10:14:04;;;;;;;;;;;;;;;31.00;34.99;99981.61;123798;1102;104297;-79
2023/06/18 10:16:35;;;;;;;;;;;;;;;30.98;35.08;99978.13;123856;1102;104274;-78
2023/06/18 10:19:13;;;;;;;12.53;5.67;;;;;;;30.95;34.97;99979.13;123678;1100;104251;-78
2023/06/18 10:21:50;;;;;;;11.70;5.93;;;;;;;30.86;34.74;99976.08;123582;1100;104351;-77
2023/06/18 10:24:29;;;;;;;9.43;5.50;;;;;;;30.74;34.48;99978.51;123715;1099;104213;-78
2023/06/18 10:27:01;;;;;;;10.00;5.90;;;;;;;30.69;34.88;99977.04;123390;1102;104437;-77
2023/06/18 10:29:33;;;;;;;10.47;5.47;;;;;;;30.65;34.72;99973.61;123463;1099;104377;-79
2023/06/18 10:32:05;;;;;;;11.57;5.90;;;;;;;30.62;34.72;99976.48;123869;1099;104245;-79
2023/06/18 10:34:39;;;;;;;9.15;5.60;;;;;;;30.59;34.63;99972.14;123770;1100;104354;-81
2023/06/18 10:37:11;;;;;;;9.80;5.73;;;;;;;30.64;34.78;99966.47;123922;1102;104227;-80
2023/06/18 10:39:43;;;;;;;10.15;5.85;;;;;;;30.68;34.68;99968.02;123691;1102;104383;-79
2023/06/18 10:42:17;;;;;;;9.30;5.70;;;;;;;30.73;34.91;99970.47;123654;1102;104341;-79
2023/06/18 10:44:57;;;;;;;11.73;5.90;;;;;;;30.76;34.70;99968.48;123742;1102;104326;-80
2023/06/18 10:47:30;;;;;;;10.70;5.80;;;;;;;30.83;34.93;99964.45;123649;1102;104268;-79
2023/06/18 10:50:17;;;;;;;10.90;5.90;;;;;;;30.97;34.74;99966.39;124088;1099;104347;-79
2023/06/18 10:52:50;;;;;;;9.30;5.50;;;;;;;31.16;34.73;99959.91;123565;1102;104287;-78
2023/06/18 10:55:31;;;;;;;10.63;5.90;;;;;;;31.30;34.47;99956.39;123891;1102;106107;-79
2023/06/18 10:58:04;;;;;;;9.87;6.00;;;;;;;31.41;34.37;99948.48;123984;1102;104251;-77
2023/06/18 11:00:37;;;;;;;9.20;5.50;;;;;;;31.52;33.95;99956.86;123844;1102;104396;-79
2023/06/18 11:03:15;;;;;;;9.43;5.63;;;;;;;31.53;33.68;99949.59;123836;1101;104220;-80
2023/06/18 11:05:51;;;;;;;11.67;5.83;;;;;;;31.66;33.54;99956.03;124150;1101;104328;-79
2023/06/18 11:08:30;;;;;;;9.10;5.57;;;;;;;31.77;33.26;99949.95;123977;1102;104162;-80
2023/06/18 11:11:06;;;;;;;10.03;5.70;;;;;;;31.83;33.27;99949.58;123884;1102;104296;-77
2023/06/18 11:13:41;;;;;;;8.65;5.50;;;;;;;31.76;33.61;99952.75;123677;1099;104434;-77
2023/06/18 11:16:16;;;;;;;10.87;5.83;;;;;;;31.69;33.11;99947.70;123518;1102;104287;-78
2023/06/18 11:18:48;;;;;;;10.70;5.85;;;;;;;31.59;33.27;99956.52;123593;1102;104207;-78
2023/06/18 11:21:21;;;;;;;11.75;5.65;;;;;;;31.52;33.64;99962.28;123838;1102;104248;-79
2023/06/18 11:23:53;;;;;;;9.85;5.75;;;;;;;31.49;33.34;99970.60;123744;1102;104213;-78
2023/06/18 11:26:24;;;;;;;8.83;5.33;;;;;;;31.42;33.54;99954.80;123789;1102;104204;-77
2023/06/18 11:28:57;;;;;;;11.10;5.83;;;;;;;31.42;33.67;99955.66;124034;1099;104275;-76
2023/06/18 11:31:33;;;;;;;10.10;6.08;;;;;;;31.26;33.63;99954.81;123831;1102;104323;-80
2023/06/18 11:34:08;;;;;;;10.37;6.07;;;;;;;31.04;33.77;99956.09;124000;1102;104230;-79